sensor_id;sensor_type;location;lat;lon;timestamp;pressure;altitude;pressure_sealevel;temperature;humidity
39769;BME280;38939;47.824;14.642;2023-01-29T00:00:52;97725.53;;;1.43;88.94
39769;BME280;38939;47.824;14.642;2023-01-29T00:01:54;97728.25;;;1.42;88.45
39769;BME280;38939;47.824;14.642;2023-01-29T00:02:56;97729.06;;;1.42;89.18
39769;BME280;38939;47.824;14.642;2023-01-29T00:03:59;97723.13;;;1.42;89.25
39769;BME280;38939;47.824;14.642;2023-01-29T00:05:02;97726.50;;;1.42;89.34
39769;BME280;38939;47.824;14.642;2023-01-29T00:06:25;97721.34;;;1.42;88.58
39769;BME280;38939;47.824;14.642;2023-01-29T00:07:27;97725.44;;;1.45;88.83
39769;BME280;38939;47.824;14.642;2023-01-29T00:08:29;97718.66;;;1.44;88.43
39769;BME280;38939;47.824;14.642;2023-01-29T00:09:31;97714.34;;;1.44;89.06
39769;BME280;38939;47.824;14.642;2023-01-29T00:10:33;97714.34;;;1.44;89.12
39769;BME280;38939;47.824;14.642;2023-01-29T00:11:35;97717.03;;;1.43;88.79
39769;BME280;38939;47.824;14.642;2023-01-29T00:12:38;97719.59;;;1.43;89.46
39769;BME280;38939;47.824;14.642;2023-01-29T00:13:40;97719.38;;;1.46;88.99
39769;BME280;38939;47.824;14.642;2023-01-29T00:14:42;97721.25;;;1.44;89.12
39769;BME280;38939;47.824;14.642;2023-01-29T00:15:57;97718.41;;;1.47;89.45
39769;BME280;38939;47.824;14.642;2023-01-29T00:17:00;97720.88;;;1.48;88.85
39769;BME280;38939;47.824;14.642;2023-01-29T00:18:02;97718.41;;;1.47;88.76
39769;BME280;38939;47.824;14.642;2023-01-29T00:19:04;97723.66;;;1.45;88.51
39769;BME280;38939;47.824;14.642;2023-01-29T00:20:06;97717.72;;;1.45;88.88
39769;BME280;38939;47.824;14.642;2023-01-29T00:21:09;97717.72;;;1.45;89.48
39769;BME280;38939;47.824;14.642;2023-01-29T00:22:11;97722.75;;;1.46;89.04
39769;BME280;38939;47.824;14.642;2023-01-29T00:23:13;97725.53;;;1.43;89.47
39769;BME280;38939;47.824;14.642;2023-01-29T00:24:16;97719.72;;;1.41;89.06
39769;BME280;38939;47.824;14.642;2023-01-29T00:25:18;97721.84;;;1.36;89.07
39769;BME280;38939;47.824;14.642;2023-01-29T00:26:20;97722.78;;;1.35;89.78
39769;BME280;38939;47.824;14.642;2023-01-29T00:27:21;97717.78;;;1.33;89.96
39769;BME280;38939;47.824;14.642;2023-01-29T00:28:23;97721.50;;;1.29;89.94
39769;BME280;38939;47.824;14.642;2023-01-29T00:29:25;97718.94;;;1.29;89.38
39769;BME280;38939;47.824;14.642;2023-01-29T00:30:27;97722.09;;;1.33;90.29
39769;BME280;38939;47.824;14.642;2023-01-29T00:31:29;97727.13;;;1.34;90.30
39769;BME280;38939;47.824;14.642;2023-01-29T00:32:31;97727.13;;;1.34;90.25
39769;BME280;38939;47.824;14.642;2023-01-29T00:33:33;97721.97;;;1.34;90.20
39769;BME280;38939;47.824;14.642;2023-01-29T00:34:35;97722.66;;;1.36;89.95
39769;BME280;38939;47.824;14.642;2023-01-29T00:35:38;97719.16;;;1.37;89.46
39769;BME280;38939;47.824;14.642;2023-01-29T00:36:40;97712.97;;;1.40;90.25
39769;BME280;38939;47.824;14.642;2023-01-29T00:37:44;97714.56;;;1.41;89.58
39769;BME280;38939;47.824;14.642;2023-01-29T00:38:47;97718.91;;;1.40;90.42
39769;BME280;38939;47.824;14.642;2023-01-29T00:39:59;97715.06;;;1.35;89.96
39769;BME280;38939;47.824;14.642;2023-01-29T00:41:08;97713.34;;;1.35;90.00
39769;BME280;38939;47.824;14.642;2023-01-29T00:42:28;97711.31;;;1.39;90.55
39769;BME280;38939;47.824;14.642;2023-01-29T00:44:05;97711.06;;;1.42;90.45
39769;BME280;38939;47.824;14.642;2023-01-29T00:45:26;97707.44;;;1.45;90.18
39769;BME280;38939;47.824;14.642;2023-01-29T00:46:28;97707.31;;;1.46;89.94
39769;BME280;38939;47.824;14.642;2023-01-29T00:47:30;97700.41;;;1.47;90.49
39769;BME280;38939;47.824;14.642;2023-01-29T00:48:34;97704.63;;;1.48;89.50
39769;BME280;38939;47.824;14.642;2023-01-29T00:49:36;97704.38;;;1.51;89.65
39769;BME280;38939;47.824;14.642;2023-01-29T00:50:38;97700.19;;;1.50;90.03
39769;BME280;38939;47.824;14.642;2023-01-29T00:51:40;97698.41;;;1.50;90.50
39769;BME280;38939;47.824;14.642;2023-01-29T00:52:42;97701.09;;;1.49;90.32
39769;BME280;38939;47.824;14.642;2023-01-29T00:53:44;97702.06;;;1.48;90.45
39769;BME280;38939;47.824;14.642;2023-01-29T00:54:46;97702.97;;;1.47;90.47
39769;BME280;38939;47.824;14.642;2023-01-29T00:55:48;97706.25;;;1.49;90.04
39769;BME280;38939;47.824;14.642;2023-01-29T00:56:49;97715.34;;;1.53;90.36
39769;BME280;38939;47.824;14.642;2023-01-29T00:57:51;97713.72;;;1.52;89.44
39769;BME280;38939;47.824;14.642;2023-01-29T00:58:53;97711.84;;;1.54;89.53
39769;BME280;38939;47.824;14.642;2023-01-29T00:59:55;97712.88;;;1.51;89.58
39769;BME280;38939;47.824;14.642;2023-01-29T01:00:57;97718.19;;;1.50;89.77
39769;BME280;38939;47.824;14.642;2023-01-29T01:01:59;97717.91;;;1.53;90.23
39769;BME280;38939;47.824;14.642;2023-01-29T01:03:19;97719.78;;;1.51;89.28
39769;BME280;38939;47.824;14.642;2023-01-29T01:04:21;97722.38;;;1.51;90.19
39769;BME280;38939;47.824;14.642;2023-01-29T01:05:23;97717.47;;;1.48;90.07
39769;BME280;38939;47.824;14.642;2023-01-29T01:06:25;97720.75;;;1.50;90.10
39769;BME280;38939;47.824;14.642;2023-01-29T01:07:27;97727.38;;;1.52;90.42
39769;BME280;38939;47.824;14.642;2023-01-29T01:08:29;97728.47;;;1.50;90.35
39769;BME280;38939;47.824;14.642;2023-01-29T01:09:49;97728.69;;;1.47;90.55
39769;BME280;38939;47.824;14.642;2023-01-29T01:11:09;97734.66;;;1.47;89.70
39769;BME280;38939;47.824;14.642;2023-01-29T01:12:11;97735.47;;;1.48;90.23
39769;BME280;38939;47.824;14.642;2023-01-29T01:13:13;97735.47;;;1.48;89.96
39769;BME280;38939;47.824;14.642;2023-01-29T01:14:15;97733.84;;;1.47;90.02
39769;BME280;38939;47.824;14.642;2023-01-29T01:15:17;97726.25;;;1.45;90.54
39769;BME280;38939;47.824;14.642;2023-01-29T01:16:19;97735.72;;;1.45;90.59
39769;BME280;38939;47.824;14.642;2023-01-29T01:17:21;97733.84;;;1.47;90.55
39769;BME280;38939;47.824;14.642;2023-01-29T01:18:23;97738.75;;;1.50;90.28
39769;BME280;38939;47.824;14.642;2023-01-29T01:19:25;97735.91;;;1.53;89.98
39769;BME280;38939;47.824;14.642;2023-01-29T01:20:28;97735.91;;;1.53;90.47
39769;BME280;38939;47.824;14.642;2023-01-29T01:21:31;97735.00;;;1.54;90.41
39769;BME280;38939;47.824;14.642;2023-01-29T01:22:33;97741.75;;;1.55;89.36
39769;BME280;38939;47.824;14.642;2023-01-29T01:23:36;97738.25;;;1.56;89.36
39769;BME280;38939;47.824;14.642;2023-01-29T01:24:38;97736.59;;;1.55;89.36
39769;BME280;38939;47.824;14.642;2023-01-29T01:25:40;97737.41;;;1.55;89.95
39769;BME280;38939;47.824;14.642;2023-01-29T01:26:42;97737.41;;;1.55;90.20
39769;BME280;38939;47.824;14.642;2023-01-29T01:27:44;97736.88;;;1.52;90.24
39769;BME280;38939;47.824;14.642;2023-01-29T01:28:46;97738.75;;;1.50;89.95
39769;BME280;38939;47.824;14.642;2023-01-29T01:29:48;97724.84;;;1.41;90.36
39769;BME280;38939;47.824;14.642;2023-01-29T01:30:50;97734.59;;;1.37;90.46
39769;BME280;38939;47.824;14.642;2023-01-29T01:31:52;97731.75;;;1.40;90.46
39769;BME280;38939;47.824;14.642;2023-01-29T01:32:54;97730.56;;;1.45;90.39
39769;BME280;38939;47.824;14.642;2023-01-29T01:33:56;97738.75;;;1.50;90.84
39769;BME280;38939;47.824;14.642;2023-01-29T01:34:58;97731.72;;;1.52;90.14
39769;BME280;38939;47.824;14.642;2023-01-29T01:36:00;97732.53;;;1.52;89.82
39769;BME280;38939;47.824;14.642;2023-01-29T01:37:02;97733.34;;;1.53;90.63
39769;BME280;38939;47.824;14.642;2023-01-29T01:38:04;97731.47;;;1.55;89.78
39769;BME280;38939;47.824;14.642;2023-01-29T01:39:06;97730.53;;;1.56;90.38
39769;BME280;38939;47.824;14.642;2023-01-29T01:40:12;97728.88;;;1.55;90.47
39769;BME280;38939;47.824;14.642;2023-01-29T01:41:20;97725.50;;;1.54;90.60
39769;BME280;38939;47.824;14.642;2023-01-29T01:42:26;97729.97;;;1.52;90.28
39769;BME280;38939;47.824;14.642;2023-01-29T01:43:46;97732.41;;;1.54;89.81
39769;BME280;38939;47.824;14.642;2023-01-29T01:45:03;97729.84;;;1.54;90.35
39769;BME280;38939;47.824;14.642;2023-01-29T01:46:06;97725.50;;;1.54;90.15
39769;BME280;38939;47.824;14.642;2023-01-29T01:47:10;97724.44;;;1.57;90.57
39769;BME280;38939;47.824;14.642;2023-01-29T01:48:14;97728.50;;;1.59;90.53
39769;BME280;38939;47.824;14.642;2023-01-29T01:49:17;97725.13;;;1.59;90.77
39769;BME280;38939;47.824;14.642;2023-01-29T01:50:26;97718.38;;;1.58;90.28
39769;BME280;38939;47.824;14.642;2023-01-29T01:51:29;97727.69;;;1.59;90.04
39769;BME280;38939;47.824;14.642;2023-01-29T01:52:33;97722.56;;;1.59;90.50
39769;BME280;38939;47.824;14.642;2023-01-29T01:53:37;97727.69;;;1.59;90.04
39769;BME280;38939;47.824;14.642;2023-01-29T01:54:40;97722.81;;;1.56;89.67
39769;BME280;38939;47.824;14.642;2023-01-29T01:55:47;97724.56;;;1.55;90.26
39769;BME280;38939;47.824;14.642;2023-01-29T01:56:51;97721.94;;;1.46;90.54
39769;BME280;38939;47.824;14.642;2023-01-29T01:57:59;97722.84;;;1.45;90.23
39769;BME280;38939;47.824;14.642;2023-01-29T01:59:04;97718.66;;;1.44;90.95
39769;BME280;38939;47.824;14.642;2023-01-29T02:00:08;97727.06;;;1.46;91.08
39769;BME280;38939;47.824;14.642;2023-01-29T02:01:12;97731.16;;;1.48;91.25
39769;BME280;38939;47.824;14.642;2023-01-29T02:02:14;97725.06;;;1.49;90.90
39769;BME280;38939;47.824;14.642;2023-01-29T02:03:37;97721.78;;;1.47;90.75
39769;BME280;38939;47.824;14.642;2023-01-29T02:04:59;97731.25;;;1.47;90.72
39769;BME280;38939;47.824;14.642;2023-01-29T02:06:20;97729.16;;;1.52;91.11
39769;BME280;38939;47.824;14.642;2023-01-29T02:07:41;97731.72;;;1.52;90.43
39769;BME280;38939;47.824;14.642;2023-01-29T02:09:04;97725.69;;;1.42;91.06
39769;BME280;38939;47.824;14.642;2023-01-29T02:10:26;97724.31;;;1.37;90.96
39769;BME280;38939;47.824;14.642;2023-01-29T02:11:28;97723.25;;;1.40;90.64
39769;BME280;38939;47.824;14.642;2023-01-29T02:12:30;97724.03;;;1.40;90.22
39769;BME280;38939;47.824;14.642;2023-01-29T02:13:33;97729.19;;;1.40;91.34
39769;BME280;38939;47.824;14.642;2023-01-29T02:14:35;97728.06;;;1.33;91.37
39769;BME280;38939;47.824;14.642;2023-01-29T02:15:41;97732.75;;;1.28;91.54
39769;BME280;38939;47.824;14.642;2023-01-29T02:16:47;97725.25;;;1.25;91.64
39769;BME280;38939;47.824;14.642;2023-01-29T02:17:49;97722.97;;;1.22;91.62
39769;BME280;38939;47.824;14.642;2023-01-29T02:18:51;97726.91;;;1.26;91.86
39769;BME280;38939;47.824;14.642;2023-01-29T02:22:33;97719.91;;;1.28;91.62
39769;BME280;38939;47.824;14.642;2023-01-29T02:23:53;97731.69;;;1.31;91.47
39769;BME280;38939;47.824;14.642;2023-01-29T02:28:15;97729.19;;;1.40;91.17
39769;BME280;38939;47.824;14.642;2023-01-29T02:29:24;97724.84;;;1.41;92.03
39769;BME280;38939;47.824;14.642;2023-01-29T02:30:39;97734.59;;;1.37;91.93
39769;BME280;38939;47.824;14.642;2023-01-29T02:31:43;97734.59;;;1.37;91.47
39769;BME280;38939;47.824;14.642;2023-01-29T02:36:40;97730.34;;;1.48;90.88
39769;BME280;38939;47.824;14.642;2023-01-29T02:37:56;97733.72;;;1.48;90.95
39769;BME280;38939;47.824;14.642;2023-01-29T02:40:16;97725.19;;;1.48;91.36
39769;BME280;38939;47.824;14.642;2023-01-29T02:42:39;97724.25;;;1.49;90.27
39769;BME280;38939;47.824;14.642;2023-01-29T02:43:45;97734.28;;;1.52;90.19
39769;BME280;38939;47.824;14.642;2023-01-29T02:44:53;97723.16;;;1.51;90.69
39769;BME280;38939;47.824;14.642;2023-01-29T02:46:01;97726.81;;;1.49;91.14
39769;BME280;38939;47.824;14.642;2023-01-29T02:48:25;97731.16;;;1.48;90.53
39769;BME280;38939;47.824;14.642;2023-01-29T02:52:18;97733.41;;;1.42;91.07
39769;BME280;38939;47.824;14.642;2023-01-29T02:53:39;97734.44;;;1.39;91.08
39769;BME280;38939;47.824;14.642;2023-01-29T02:54:52;97731.06;;;1.38;90.95
39769;BME280;38939;47.824;14.642;2023-01-29T02:55:58;97736.22;;;1.38;89.93
39769;BME280;38939;47.824;14.642;2023-01-29T02:57:36;97727.00;;;1.36;90.88
39769;BME280;38939;47.824;14.642;2023-01-29T02:59:43;97734.81;;;1.34;90.16
39769;BME280;38939;47.824;14.642;2023-01-29T03:00:46;97730.63;;;1.33;90.29
39769;BME280;38939;47.824;14.642;2023-01-29T03:01:52;97735.78;;;1.33;91.35
39769;BME280;38939;47.824;14.642;2023-01-29T03:04:11;97744.66;;;1.29;91.26
39769;BME280;38939;47.824;14.642;2023-01-29T03:05:16;97737.66;;;1.31;91.50
39769;BME280;38939;47.824;14.642;2023-01-29T03:06:23;97734.81;;;1.34;91.53
39769;BME280;38939;47.824;14.642;2023-01-29T03:07:31;97734.44;;;1.39;91.46
39769;BME280;38939;47.824;14.642;2023-01-29T03:08:41;97739.75;;;1.37;91.16
39769;BME280;38939;47.824;14.642;2023-01-29T03:09:47;97737.84;;;1.39;91.38
39769;BME280;38939;47.824;14.642;2023-01-29T03:10:53;97739.47;;;1.40;91.31
39769;BME280;38939;47.824;14.642;2023-01-29T03:11:57;97743.53;;;1.43;90.85
39769;BME280;38939;47.824;14.642;2023-01-29T03:13:13;97737.59;;;1.43;91.00
39769;BME280;38939;47.824;14.642;2023-01-29T03:14:20;97744.38;;;1.44;90.35
39769;BME280;38939;47.824;14.642;2023-01-29T03:15:25;97747.66;;;1.46;90.25
39769;BME280;38939;47.824;14.642;2023-01-29T03:16:34;97743.19;;;1.48;90.54
39769;BME280;38939;47.824;14.642;2023-01-29T03:17:39;97749.84;;;1.50;89.92
39769;BME280;38939;47.824;14.642;2023-01-29T03:18:43;97742.00;;;1.52;90.68
39769;BME280;38939;47.824;14.642;2023-01-29T03:19:46;97745.38;;;1.52;90.71
39769;BME280;38939;47.824;14.642;2023-01-29T03:20:51;97744.59;;;1.52;90.13
39769;BME280;38939;47.824;14.642;2023-01-29T03:21:55;97734.78;;;1.46;90.21
39769;BME280;38939;47.824;14.642;2023-01-29T03:23:05;97742.84;;;1.41;90.77
39769;BME280;38939;47.824;14.642;2023-01-29T03:24:10;97746.50;;;1.38;90.45
39769;BME280;38939;47.824;14.642;2023-01-29T03:25:32;97751.75;;;1.37;90.76
39769;BME280;38939;47.824;14.642;2023-01-29T03:26:54;97759.22;;;1.40;90.64
39769;BME280;38939;47.824;14.642;2023-01-29T03:28:16;97756.78;;;1.38;90.41
39769;BME280;38939;47.824;14.642;2023-01-29T03:29:37;97758.44;;;1.39;90.54
39769;BME280;38939;47.824;14.642;2023-01-29T03:30:59;97760.75;;;1.43;90.67
39769;BME280;38939;47.824;14.642;2023-01-29T03:32:21;97752.78;;;1.46;90.94
39769;BME280;38939;47.824;14.642;2023-01-29T03:33:25;97752.78;;;1.46;90.52
39769;BME280;38939;47.824;14.642;2023-01-29T03:34:28;97757.09;;;1.45;90.76
39769;BME280;38939;47.824;14.642;2023-01-29T03:35:39;97754.53;;;1.45;89.94
39769;BME280;38939;47.824;14.642;2023-01-29T03:36:51;97751.94;;;1.45;90.54
39769;BME280;38939;47.824;14.642;2023-01-29T03:37:56;97752.78;;;1.46;90.53
39769;BME280;38939;47.824;14.642;2023-01-29T03:38:58;97759.56;;;1.47;90.09
39769;BME280;38939;47.824;14.642;2023-01-29T03:40:03;97762.81;;;1.49;89.92
39769;BME280;38939;47.824;14.642;2023-01-29T03:44:56;97756.09;;;1.57;90.48
39769;BME280;38939;47.824;14.642;2023-01-29T03:48:22;97752.50;;;1.60;89.97
39769;BME280;38939;47.824;14.642;2023-01-29T03:50:33;97755.06;;;1.60;90.04
39769;BME280;38939;47.824;14.642;2023-01-29T03:51:39;97754.50;;;1.56;89.83
39769;BME280;38939;47.824;14.642;2023-01-29T03:52:48;97756.25;;;1.56;89.71
39769;BME280;38939;47.824;14.642;2023-01-29T03:54:05;97753.69;;;1.56;89.78
39769;BME280;38939;47.824;14.642;2023-01-29T03:55:21;97758.25;;;1.52;89.77
39769;BME280;38939;47.824;14.642;2023-01-29T03:57:34;97762.44;;;1.53;90.25
39769;BME280;38939;47.824;14.642;2023-01-29T03:58:38;97758.81;;;1.56;89.46
39769;BME280;38939;47.824;14.642;2023-01-29T04:01:03;97752.84;;;1.55;90.07
39769;BME280;38939;47.824;14.642;2023-01-29T04:02:14;97751.22;;;1.54;90.07
39769;BME280;38939;47.824;14.642;2023-01-29T04:03:20;97753.91;;;1.53;89.23
39769;BME280;38939;47.824;14.642;2023-01-29T04:04:32;97757.44;;;1.52;89.55
39769;BME280;38939;47.824;14.642;2023-01-29T04:05:45;97747.97;;;1.52;90.03
39769;BME280;38939;47.824;14.642;2023-01-29T04:06:49;97754.88;;;1.52;89.44
39769;BME280;38939;47.824;14.642;2023-01-29T04:07:55;97742.00;;;1.52;89.97
39769;BME280;38939;47.824;14.642;2023-01-29T04:09:05;97747.16;;;1.52;90.27
39769;BME280;38939;47.824;14.642;2023-01-29T04:10:20;97742.00;;;1.52;89.93
39769;BME280;38939;47.824;14.642;2023-01-29T04:11:22;97737.91;;;1.49;90.00
39769;BME280;38939;47.824;14.642;2023-01-29T04:12:28;97742.25;;;1.49;89.62
39769;BME280;38939;47.824;14.642;2023-01-29T04:13:31;97739.94;;;1.46;89.90
39769;BME280;38939;47.824;14.642;2023-01-29T04:14:35;97738.16;;;1.46;89.70
39769;BME280;38939;47.824;14.642;2023-01-29T04:15:40;97734.66;;;1.47;89.41
39769;BME280;38939;47.824;14.642;2023-01-29T04:16:46;97727.06;;;1.46;90.17
39769;BME280;38939;47.824;14.642;2023-01-29T04:17:50;97728.25;;;1.42;90.23
39769;BME280;38939;47.824;14.642;2023-01-29T04:18:53;97727.31;;;1.43;90.72
39769;BME280;38939;47.824;14.642;2023-01-29T04:19:55;97734.78;;;1.46;90.64
39769;BME280;38939;47.824;14.642;2023-01-29T04:20:57;97727.19;;;1.44;90.93
39769;BME280;38939;47.824;14.642;2023-01-29T04:22:10;97728.50;;;1.38;90.90
39769;BME280;38939;47.824;14.642;2023-01-29T04:23:21;97724.16;;;1.39;91.12
39769;BME280;38939;47.824;14.642;2023-01-29T04:24:24;97719.88;;;1.39;90.98
39769;BME280;38939;47.824;14.642;2023-01-29T04:25:31;97715.41;;;1.42;90.18
39769;BME280;38939;47.824;14.642;2023-01-29T04:26:49;97722.16;;;1.43;90.93
39769;BME280;38939;47.824;14.642;2023-01-29T04:29:15;97709.56;;;1.39;90.89
39769;BME280;38939;47.824;14.642;2023-01-29T04:30:25;97702.47;;;1.32;91.07
39769;BME280;38939;47.824;14.642;2023-01-29T04:31:31;97703.09;;;1.24;90.59
39769;BME280;38939;47.824;14.642;2023-01-29T04:33:43;97692.00;;;1.24;90.60
39769;BME280;38939;47.824;14.642;2023-01-29T04:34:50;97700.91;;;1.19;90.32
39769;BME280;38939;47.824;14.642;2023-01-29T04:37:21;97702.69;;;1.08;91.36
39769;BME280;38939;47.824;14.642;2023-01-29T04:39:55;97694.59;;;1.12;91.89
39769;BME280;38939;47.824;14.642;2023-01-29T04:42:05;97696.69;;;1.18;91.19
39769;BME280;38939;47.824;14.642;2023-01-29T04:43:17;97692.22;;;1.20;91.85
39769;BME280;38939;47.824;14.642;2023-01-29T04:44:28;97696.28;;;1.23;91.97
39769;BME280;38939;47.824;14.642;2023-01-29T04:46:48;97691.16;;;1.23;91.40
39769;BME280;38939;47.824;14.642;2023-01-29T04:49:28;97694.41;;;1.25;91.73
39769;BME280;38939;47.824;14.642;2023-01-29T04:50:36;97689.28;;;1.25;91.87
39769;BME280;38939;47.824;14.642;2023-01-29T04:52:45;97701.09;;;1.28;91.43
39769;BME280;38939;47.824;14.642;2023-01-29T04:55:53;97700.94;;;1.29;91.68
39769;BME280;38939;47.824;14.642;2023-01-29T04:57:02;97704.59;;;1.27;91.51
39769;BME280;38939;47.824;14.642;2023-01-29T04:59:13;97701.91;;;1.28;91.37
39769;BME280;38939;47.824;14.642;2023-01-29T05:01:22;97702.81;;;1.27;91.35
39769;BME280;38939;47.824;14.642;2023-01-29T05:02:30;97707.16;;;1.27;90.97
39769;BME280;38939;47.824;14.642;2023-01-29T05:03:34;97702.72;;;1.29;90.89
39769;BME280;38939;47.824;14.642;2023-01-29T05:04:37;97704.25;;;1.31;90.84
39769;BME280;38939;47.824;14.642;2023-01-29T05:05:44;97702.59;;;1.30;90.35
39769;BME280;38939;47.824;14.642;2023-01-29T05:06:47;97708.66;;;1.29;90.71
39769;BME280;38939;47.824;14.642;2023-01-29T05:07:49;97711.22;;;1.29;90.72
39769;BME280;38939;47.824;14.642;2023-01-29T05:08:52;97709.63;;;1.28;89.94
39769;BME280;38939;47.824;14.642;2023-01-29T05:09:54;97713.09;;;1.27;90.72
39769;BME280;38939;47.824;14.642;2023-01-29T05:10:57;97717.44;;;1.27;89.90
39769;BME280;38939;47.824;14.642;2023-01-29T05:11:59;97717.44;;;1.27;90.14
39769;BME280;38939;47.824;14.642;2023-01-29T05:13:03;97718.25;;;1.27;90.85
39769;BME280;38939;47.824;14.642;2023-01-29T05:14:07;97715.94;;;1.24;90.63
39769;BME280;38939;47.824;14.642;2023-01-29T05:15:13;97719.56;;;1.22;90.52
39769;BME280;38939;47.824;14.642;2023-01-29T05:16:21;97719.69;;;1.20;90.01
39769;BME280;38939;47.824;14.642;2023-01-29T05:17:24;97723.06;;;1.20;90.50
39769;BME280;38939;47.824;14.642;2023-01-29T05:18:27;97720.50;;;1.20;90.65
39769;BME280;38939;47.824;14.642;2023-01-29T05:19:30;97726.72;;;1.18;90.73
39769;BME280;38939;47.824;14.642;2023-01-29T05:20:32;97731.03;;;1.17;90.04
39769;BME280;38939;47.824;14.642;2023-01-29T05:21:35;97735.13;;;1.20;90.56
39769;BME280;38939;47.824;14.642;2023-01-29T05:22:37;97724.84;;;1.20;90.84
39769;BME280;38939;47.824;14.642;2023-01-29T05:23:40;97733.25;;;1.22;90.76
39769;BME280;38939;47.824;14.642;2023-01-29T05:24:53;97731.47;;;1.23;90.86
39769;BME280;38939;47.824;14.642;2023-01-29T05:25:55;97722.84;;;1.24;90.30
39769;BME280;38939;47.824;14.642;2023-01-29T05:26:57;97732.97;;;1.25;90.12
39769;BME280;38939;47.824;14.642;2023-01-29T05:28:17;97728.78;;;1.24;90.57
39769;BME280;38939;47.824;14.642;2023-01-29T05:29:20;97734.03;;;1.23;89.99
39769;BME280;38939;47.824;14.642;2023-01-29T05:30:22;97730.56;;;1.24;90.70
39769;BME280;38939;47.824;14.642;2023-01-29T05:31:24;97736.63;;;1.23;90.66
39769;BME280;38939;47.824;14.642;2023-01-29T05:32:26;97740.69;;;1.25;90.55
39769;BME280;38939;47.824;14.642;2023-01-29T05:33:28;97732.06;;;1.26;90.51
39769;BME280;38939;47.824;14.642;2023-01-29T05:34:30;97737.09;;;1.28;90.28
39769;BME280;38939;47.824;14.642;2023-01-29T05:35:32;97731.78;;;1.29;90.50
39769;BME280;38939;47.824;14.642;2023-01-29T05:36:35;97740.22;;;1.31;89.67
39769;BME280;38939;47.824;14.642;2023-01-29T05:37:37;97733.56;;;1.29;90.51
39769;BME280;38939;47.824;14.642;2023-01-29T05:38:39;97732.06;;;1.26;90.12
39769;BME280;38939;47.824;14.642;2023-01-29T05:39:41;97732.06;;;1.26;89.90
39769;BME280;38939;47.824;14.642;2023-01-29T05:40:43;97729.38;;;1.28;90.63
39769;BME280;38939;47.824;14.642;2023-01-29T05:41:44;97726.66;;;1.29;89.87
39769;BME280;38939;47.824;14.642;2023-01-29T05:42:46;97736.94;;;1.29;89.91
39769;BME280;38939;47.824;14.642;2023-01-29T05:43:48;97737.19;;;1.26;90.39
39769;BME280;38939;47.824;14.642;2023-01-29T05:44:50;97735.44;;;1.27;90.65
39769;BME280;38939;47.824;14.642;2023-01-29T05:45:53;97731.94;;;1.28;89.80
39769;BME280;38939;47.824;14.642;2023-01-29T05:46:55;97732.63;;;1.30;90.54
39769;BME280;38939;47.824;14.642;2023-01-29T05:47:57;97729.00;;;1.32;89.68
39769;BME280;38939;47.824;14.642;2023-01-29T05:48:59;97730.19;;;1.28;90.31
39769;BME280;38939;47.824;14.642;2023-01-29T05:50:01;97731.16;;;1.16;89.40
39769;BME280;38939;47.824;14.642;2023-01-29T05:51:03;97734.78;;;1.13;89.27
39769;BME280;38939;47.824;14.642;2023-01-29T05:52:05;97726.03;;;1.16;89.49
39769;BME280;38939;47.824;14.642;2023-01-29T05:53:07;97729.16;;;1.19;89.64
39769;BME280;38939;47.824;14.642;2023-01-29T05:54:10;97726.44;;;1.21;90.30
39769;BME280;38939;47.824;14.642;2023-01-29T05:55:12;97734.31;;;1.19;89.49
39769;BME280;38939;47.824;14.642;2023-01-29T05:56:14;97721.56;;;1.18;89.97
39769;BME280;38939;47.824;14.642;2023-01-29T05:57:16;97729.16;;;1.19;90.10
39769;BME280;38939;47.824;14.642;2023-01-29T05:58:18;97729.84;;;1.22;89.59
39769;BME280;38939;47.824;14.642;2023-01-29T05:59:20;97729.59;;;1.25;90.08
39769;BME280;38939;47.824;14.642;2023-01-29T06:00:22;97731.94;;;1.28;89.96
39769;BME280;38939;47.824;14.642;2023-01-29T06:01:24;97724.22;;;1.28;90.05
39769;BME280;38939;47.824;14.642;2023-01-29T06:02:29;97727.72;;;1.27;89.43
39769;BME280;38939;47.824;14.642;2023-01-29T06:03:32;97727.16;;;1.23;90.31
39769;BME280;38939;47.824;14.642;2023-01-29T06:04:34;97727.16;;;1.23;89.30
39769;BME280;38939;47.824;14.642;2023-01-29T06:05:37;97723.75;;;1.23;90.17
39769;BME280;38939;47.824;14.642;2023-01-29T06:06:39;97727.41;;;1.20;89.71
39769;BME280;38939;47.824;14.642;2023-01-29T06:07:40;97728.31;;;1.19;89.90
39769;BME280;38939;47.824;14.642;2023-01-29T06:08:45;97730.09;;;1.18;89.62
39769;BME280;38939;47.824;14.642;2023-01-29T06:09:47;97728.31;;;1.19;89.14
39769;BME280;38939;47.824;14.642;2023-01-29T06:10:49;97727.63;;;1.17;89.68
39769;BME280;38939;47.824;14.642;2023-01-29T06:11:51;97725.31;;;1.14;88.96
39769;BME280;38939;47.824;14.642;2023-01-29T06:12:53;97725.44;;;1.12;89.50
39769;BME280;38939;47.824;14.642;2023-01-29T06:13:55;97722.16;;;1.10;88.98
39769;BME280;38939;47.824;14.642;2023-01-29T06:14:57;97719.72;;;1.09;89.94
39769;BME280;38939;47.824;14.642;2023-01-29T06:15:58;97715.41;;;1.09;89.85
39769;BME280;38939;47.824;14.642;2023-01-29T06:17:00;97721.09;;;1.13;88.97
39769;BME280;38939;47.824;14.642;2023-01-29T06:18:02;97718.69;;;1.11;89.79
39769;BME280;38939;47.824;14.642;2023-01-29T06:19:04;97715.41;;;1.09;88.84
39769;BME280;38939;47.824;14.642;2023-01-29T06:20:06;97717.41;;;1.06;88.84
39769;BME280;38939;47.824;14.642;2023-01-29T06:21:09;97716.44;;;1.07;88.85
39769;BME280;38939;47.824;14.642;2023-01-29T06:22:12;97712.38;;;1.04;89.75
39769;BME280;38939;47.824;14.642;2023-01-29T06:23:14;97714.03;;;1.05;89.74
39769;BME280;38939;47.824;14.642;2023-01-29T06:24:16;97716.44;;;1.07;89.58
39769;BME280;38939;47.824;14.642;2023-01-29T06:25:17;97721.38;;;1.10;89.37
39769;BME280;38939;47.824;14.642;2023-01-29T06:26:19;97723.13;;;1.09;88.86
39769;BME280;38939;47.824;14.642;2023-01-29T06:27:21;97722.16;;;1.10;88.95
39769;BME280;38939;47.824;14.642;2023-01-29T06:28:23;97710.13;;;1.11;88.77
39769;BME280;38939;47.824;14.642;2023-01-29T06:29:25;97716.13;;;1.11;89.47
39769;BME280;38939;47.824;14.642;2023-01-29T06:30:27;97718.53;;;1.13;88.78